Karla A — TCCR8 — position and weather

sailwx.info

Track history (hours):
 
Tides and Currents Weather Stations Pressure Air Temp Water Temp Dewpoint Dewpoint Depression Visibility Wind Speed Wind Dir Waves Ship Positions

Karla A

Last reported at 2014-Sep-26 21:32 UTC. Time now 2014-Oct-01 04:03 UTC.
Position N 34°42' E 034°11'.

Length 155 m; draft 7.9 m.

Type: Ship (hazmat cat A). MMSI: 271000744.

Date/timePositionNaut miles runAvg speedWind from/ knotsBaromVisibWave heightAir tempDewpointWater temp
2014-Sep-26 21:32N 34°42' E 034°11'1313.7
2014-Sep-26 20:33N 34°29' E 034°05'1313.1
2014-Sep-26 19:34N 34°17' E 033°59'1313.1
2014-Sep-26 18:33N 34°05' E 033°53'1413.1
2014-Sep-26 17:30N 33°52' E 033°46'1413.1
2014-Sep-26 16:25N 33°39' E 033°40'1213.1
2014-Sep-26 15:33N 33°28' E 033°35'2713.4
2014-Sep-26 13:33N 33°04' E 033°23'1313.2
2014-Sep-26 12:34N 32°51' E 033°17'1613.2
2014-Sep-26 11:21N 32°37' E 033°09'93 2.2
2014-Sep-24 16:25N 31°13' E 032°21'0 0.0
2014-Sep-24 15:22N 31°13' E 032°21'0 0.0
2014-Sep-24 14:24N 31°13' E 032°21'0 0.0
2014-Sep-24 13:27N 31°13' E 032°21'5 1.1
2014-Sep-24 09:16N 31°18' E 032°22'4 5.5
2014-Sep-24 08:33N 31°22' E 032°22'5 4.6
2014-Sep-24 07:33N 31°22' E 032°16'0 0.0
2014-Sep-24 00:12N 31°22' E 032°16'0 0.0
2014-Sep-23 21:29N 31°22' E 032°16'0 0.0
2014-Sep-23 20:29N 31°22' E 032°16'0 0.0
2014-Sep-23 12:04N 31°22' E 032°16'0 0.0
2014-Sep-23 11:28N 31°22' E 032°16'  
2014-Sep-17 22:33N 33°54' E 033°47'5513.2
2014-Sep-17 18:22N 33°03' E 033°23'2613.5
2014-Sep-17 16:27N 32°39' E 033°11'8413.2
2014-Sep-17 10:06N 31°26' E 032°22'1011.4
2014-Sep-17 09:12N 31°16' E 032°19'  
Track history (hours):
 
Tides and Currents Weather Stations Pressure Air Temp Water Temp Dewpoint Dewpoint Depression Visibility Wind Speed Wind Dir Waves Ship Positions

Karla A

Last reported at 2014-Sep-26 21:32 UTC. Time now 2014-Oct-01 04:03 UTC.
Position N 34°42' E 034°11'.

Length 155 m; draft 7.9 m.

Type: Ship (hazmat cat A). MMSI: 271000744.

Date/timePositionNaut miles runAvg speedWind from/ knotsBaromVisibWave heightAir tempDewpointWater temp
2014-Sep-26 21:32N 34°42' E 034°11'1313.7
2014-Sep-26 20:33N 34°29' E 034°05'1313.1
2014-Sep-26 19:34N 34°17' E 033°59'1313.1
2014-Sep-26 18:33N 34°05' E 033°53'1413.1
2014-Sep-26 17:30N 33°52' E 033°46'1413.1
2014-Sep-26 16:25N 33°39' E 033°40'1213.1
2014-Sep-26 15:33N 33°28' E 033°35'2713.4
2014-Sep-26 13:33N 33°04' E 033°23'1313.2
2014-Sep-26 12:34N 32°51' E 033°17'1613.2
2014-Sep-26 11:21N 32°37' E 033°09'93 2.2
2014-Sep-24 16:25N 31°13' E 032°21'0 0.0
2014-Sep-24 15:22N 31°13' E 032°21'0 0.0
2014-Sep-24 14:24N 31°13' E 032°21'0 0.0
2014-Sep-24 13:27N 31°13' E 032°21'5 1.1
2014-Sep-24 09:16N 31°18' E 032°22'4 5.5
2014-Sep-24 08:33N 31°22' E 032°22'5 4.6
2014-Sep-24 07:33N 31°22' E 032°16'0 0.0
2014-Sep-24 00:12N 31°22' E 032°16'0 0.0
2014-Sep-23 21:29N 31°22' E 032°16'0 0.0
2014-Sep-23 20:29N 31°22' E 032°16'0 0.0
2014-Sep-23 12:04N 31°22' E 032°16'0 0.0
2014-Sep-23 11:28N 31°22' E 032°16'  
2014-Sep-17 22:33N 33°54' E 033°47'5513.2
2014-Sep-17 18:22N 33°03' E 033°23'2613.5
2014-Sep-17 16:27N 32°39' E 033°11'8413.2
2014-Sep-17 10:06N 31°26' E 032°22'1011.4
2014-Sep-17 09:12N 31°16' E 032°19'  

Dump ship's entire track history